sensor_id;sensor_type;location;lat;lon;timestamp;pressure;altitude;pressure_sealevel;temperature;humidity
13765;BME280;6953;48.810;9.204;2022-07-11T00:01:13;99397.91;;;18.73;69.44
13765;BME280;6953;48.810;9.204;2022-07-11T00:03:39;99397.78;;;18.75;69.41
13765;BME280;6953;48.810;9.204;2022-07-11T00:06:04;99374.78;;;18.63;69.48
13765;BME280;6953;48.810;9.204;2022-07-11T00:08:30;99398.38;;;18.78;69.30
13765;BME280;6953;48.810;9.204;2022-07-11T00:10:55;99147.47;;;17.31;69.43
13765;BME280;6953;48.810;9.204;2022-07-11T00:13:20;99389.06;;;18.73;69.75
13765;BME280;6953;48.810;9.204;2022-07-11T00:15:46;99378.28;;;18.63;69.76
13765;BME280;6953;48.810;9.204;2022-07-11T00:18:11;99386.84;;;18.67;70.12
13765;BME280;6953;48.810;9.204;2022-07-11T00:20:37;99338.63;;;18.37;70.55
13765;BME280;6953;48.810;9.204;2022-07-11T00:23:02;99378.84;;;18.56;70.78
13765;BME280;6953;48.810;9.204;2022-07-11T00:25:27;99270.09;;;17.82;71.04
13765;BME280;6953;48.810;9.204;2022-07-11T00:27:53;99206.53;;;17.33;71.38
13765;BME280;6953;48.810;9.204;2022-07-11T00:30:18;99354.84;;;18.09;72.58
13765;BME280;6953;48.810;9.204;2022-07-11T00:32:43;99401.38;;;18.14;73.17
13765;BME280;6953;48.810;9.204;2022-07-11T00:35:09;99303.91;;;17.56;73.70
13765;BME280;6953;48.810;9.204;2022-07-11T00:37:35;99385.81;;;17.97;74.08
13765;BME280;6953;48.810;9.204;2022-07-11T00:40:01;99402.50;;;17.87;74.43
13765;BME280;6953;48.810;9.204;2022-07-11T00:42:26;99385.59;;;17.88;74.42
13765;BME280;6953;48.810;9.204;2022-07-11T00:44:52;99242.19;;;17.04;75.26
13765;BME280;6953;48.810;9.204;2022-07-11T00:47:17;99343.28;;;17.62;75.62
13765;BME280;6953;48.810;9.204;2022-07-11T00:49:44;99365.25;;;17.76;75.56
13765;BME280;6953;48.810;9.204;2022-07-11T00:52:10;99378.75;;;17.73;75.91
13765;BME280;6953;48.810;9.204;2022-07-11T00:54:35;99293.31;;;17.06;76.44
13765;BME280;6953;48.810;9.204;2022-07-11T00:57:01;99351.66;;;17.56;77.00
13765;BME280;6953;48.810;9.204;2022-07-11T00:59:28;99368.13;;;17.61;77.68
13765;BME280;6953;48.810;9.204;2022-07-11T01:01:54;99372.59;;;17.60;77.59
13765;BME280;6953;48.810;9.204;2022-07-11T01:04:19;99365.47;;;17.61;77.92
13765;BME280;6953;48.810;9.204;2022-07-11T01:06:46;99259.69;;;16.94;78.55
13765;BME280;6953;48.810;9.204;2022-07-11T01:09:11;99373.44;;;17.48;79.40
13765;BME280;6953;48.810;9.204;2022-07-11T01:11:37;99201.81;;;16.51;79.67
13765;BME280;6953;48.810;9.204;2022-07-11T01:14:02;99264.16;;;16.93;79.11
13765;BME280;6953;48.810;9.204;2022-07-11T01:16:27;99360.19;;;17.48;78.45
13765;BME280;6953;48.810;9.204;2022-07-11T01:18:54;99298.84;;;17.15;78.49
13765;BME280;6953;48.810;9.204;2022-07-11T01:21:52;99370.69;;;17.50;78.58
13765;BME280;6953;48.810;9.204;2022-07-11T01:24:21;99280.81;;;16.95;78.69
13765;BME280;6953;48.810;9.204;2022-07-11T01:26:47;99361.47;;;17.43;79.02
13765;BME280;6953;48.810;9.204;2022-07-11T01:29:14;99364.72;;;17.46;79.34
13765;BME280;6953;48.810;9.204;2022-07-11T01:31:43;99362.19;;;17.45;79.25
13765;BME280;6953;48.810;9.204;2022-07-11T01:34:09;99350.63;;;17.33;79.60
13765;BME280;6953;48.810;9.204;2022-07-11T01:36:35;99363.50;;;17.39;79.66
13765;BME280;6953;48.810;9.204;2022-07-11T01:39:01;99361.78;;;17.38;79.66
13765;BME280;6953;48.810;9.204;2022-07-11T01:41:26;99349.97;;;17.30;79.85
13765;BME280;6953;48.810;9.204;2022-07-11T01:43:52;99264.28;;;16.79;79.58
13765;BME280;6953;48.810;9.204;2022-07-11T01:46:18;99087.84;;;15.76;79.55
13765;BME280;6953;48.810;9.204;2022-07-11T01:48:44;99358.81;;;17.30;79.70
13765;BME280;6953;48.810;9.204;2022-07-11T01:51:09;99344.22;;;17.23;80.02
13765;BME280;6953;48.810;9.204;2022-07-11T01:53:35;99197.56;;;16.36;79.83
13765;BME280;6953;48.810;9.204;2022-07-11T01:56:00;99368.34;;;17.33;79.98
13765;BME280;6953;48.810;9.204;2022-07-11T01:58:25;99273.91;;;16.80;79.97
13765;BME280;6953;48.810;9.204;2022-07-11T02:00:51;99339.03;;;17.22;80.24
13765;BME280;6953;48.810;9.204;2022-07-11T02:03:16;99251.09;;;16.66;79.80
13765;BME280;6953;48.810;9.204;2022-07-11T02:05:42;99355.00;;;17.34;79.88
13765;BME280;6953;48.810;9.204;2022-07-11T02:08:08;99371.66;;;17.36;79.60
13765;BME280;6953;48.810;9.204;2022-07-11T02:10:44;99358.28;;;17.38;79.86
13765;BME280;6953;48.810;9.204;2022-07-11T02:13:14;99300.75;;;17.01;79.49
13765;BME280;6953;48.810;9.204;2022-07-11T02:15:41;99366.97;;;17.40;79.69
13765;BME280;6953;48.810;9.204;2022-07-11T02:18:07;99334.94;;;17.30;79.88
13765;BME280;6953;48.810;9.204;2022-07-11T02:20:33;99287.16;;;17.05;79.77
13765;BME280;6953;48.810;9.204;2022-07-11T02:22:58;99341.53;;;17.37;79.61
13765;BME280;6953;48.810;9.204;2022-07-11T02:25:24;99315.69;;;17.27;79.45
13765;BME280;6953;48.810;9.204;2022-07-11T02:27:50;99277.41;;;17.06;79.89
13765;BME280;6953;48.810;9.204;2022-07-11T02:30:16;99349.88;;;17.56;79.68
13765;BME280;6953;48.810;9.204;2022-07-11T02:32:42;99322.50;;;17.43;79.45
13765;BME280;6953;48.810;9.204;2022-07-11T02:35:08;99352.13;;;17.62;79.49
13765;BME280;6953;48.810;9.204;2022-07-11T02:37:34;99338.41;;;17.56;79.00
13765;BME280;6953;48.810;9.204;2022-07-11T02:39:59;99343.81;;;17.67;78.83
13765;BME280;6953;48.810;9.204;2022-07-11T02:42:25;99361.31;;;17.69;78.66
13765;BME280;6953;48.810;9.204;2022-07-11T02:44:50;99302.34;;;17.41;78.85
13765;BME280;6953;48.810;9.204;2022-07-11T02:47:15;99312.13;;;17.53;78.58
13765;BME280;6953;48.810;9.204;2022-07-11T02:49:41;99350.28;;;17.75;78.75
13765;BME280;6953;48.810;9.204;2022-07-11T02:52:07;99330.88;;;17.62;78.87
13765;BME280;6953;48.810;9.204;2022-07-11T02:54:33;99358.03;;;17.78;78.92
13765;BME280;6953;48.810;9.204;2022-07-11T02:56:58;99350.91;;;17.78;78.69
13765;BME280;6953;48.810;9.204;2022-07-11T02:59:23;99279.63;;;17.37;78.76
13765;BME280;6953;48.810;9.204;2022-07-11T03:01:50;99181.03;;;16.82;78.28
13765;BME280;6953;48.810;9.204;2022-07-11T03:04:16;99354.09;;;17.83;78.82
13765;BME280;6953;48.810;9.204;2022-07-11T03:06:41;99355.59;;;17.75;78.46
13765;BME280;6953;48.810;9.204;2022-07-11T03:09:08;99361.09;;;17.84;78.71
13765;BME280;6953;48.810;9.204;2022-07-11T03:11:34;99288.44;;;17.50;78.67
13765;BME280;6953;48.810;9.204;2022-07-11T03:13:59;99340.19;;;17.80;78.67
13765;BME280;6953;48.810;9.204;2022-07-11T03:16:29;99274.66;;;17.45;78.44
13765;BME280;6953;48.810;9.204;2022-07-11T03:18:55;99351.84;;;17.90;78.54
13765;BME280;6953;48.810;9.204;2022-07-11T03:21:22;99333.09;;;17.68;78.58
13765;BME280;6953;48.810;9.204;2022-07-11T03:23:47;99338.16;;;17.83;78.39
13765;BME280;6953;48.810;9.204;2022-07-11T03:26:15;99270.91;;;17.47;78.33
13765;BME280;6953;48.810;9.204;2022-07-11T03:28:40;99354.78;;;17.98;78.34
13765;BME280;6953;48.810;9.204;2022-07-11T03:31:06;99358.19;;;18.00;77.97
13765;BME280;6953;48.810;9.204;2022-07-11T03:33:31;99351.06;;;18.00;77.71
13765;BME280;6953;48.810;9.204;2022-07-11T03:35:56;99184.69;;;17.04;77.39
13765;BME280;6953;48.810;9.204;2022-07-11T03:38:22;99343.00;;;18.02;77.59
13765;BME280;6953;48.810;9.204;2022-07-11T03:40:47;99234.66;;;17.35;77.53
13765;BME280;6953;48.810;9.204;2022-07-11T03:43:14;99353.91;;;18.10;77.94
13765;BME280;6953;48.810;9.204;2022-07-11T03:45:40;99281.91;;;17.66;77.57
13765;BME280;6953;48.810;9.204;2022-07-11T03:48:06;99340.16;;;17.92;77.54
13765;BME280;6953;48.810;9.204;2022-07-11T03:50:35;99350.69;;;18.17;77.95
13765;BME280;6953;48.810;9.204;2022-07-11T03:53:00;99343.19;;;18.11;77.91
13765;BME280;6953;48.810;9.204;2022-07-11T03:55:27;99250.41;;;17.62;77.54
13765;BME280;6953;48.810;9.204;2022-07-11T03:57:53;99351.19;;;18.22;77.61
13765;BME280;6953;48.810;9.204;2022-07-11T04:00:18;99282.91;;;17.88;77.20
13765;BME280;6953;48.810;9.204;2022-07-11T04:02:45;99240.09;;;17.70;77.35
13765;BME280;6953;48.810;9.204;2022-07-11T04:05:10;99349.38;;;18.35;76.87
13765;BME280;6953;48.810;9.204;2022-07-11T04:07:36;99346.38;;;18.40;76.76
13765;BME280;6953;48.810;9.204;2022-07-11T04:10:01;99354.00;;;18.44;76.52
13765;BME280;6953;48.810;9.204;2022-07-11T04:12:27;99299.47;;;18.15;76.10
13765;BME280;6953;48.810;9.204;2022-07-11T04:14:52;99350.56;;;18.55;76.15
13765;BME280;6953;48.810;9.204;2022-07-11T04:17:17;99350.13;;;18.61;75.86
13765;BME280;6953;48.810;9.204;2022-07-11T04:19:43;99352.19;;;18.68;75.74
13765;BME280;6953;48.810;9.204;2022-07-11T04:22:09;99375.69;;;18.74;75.57
13765;BME280;6953;48.810;9.204;2022-07-11T04:24:35;99368.41;;;18.76;75.48
13765;BME280;6953;48.810;9.204;2022-07-11T04:27:00;99339.88;;;18.67;75.35
13765;BME280;6953;48.810;9.204;2022-07-11T04:29:26;99367.13;;;18.82;75.11
13765;BME280;6953;48.810;9.204;2022-07-11T04:31:51;99336.41;;;18.78;75.08
13765;BME280;6953;48.810;9.204;2022-07-11T04:34:16;99317.72;;;18.67;75.20
13765;BME280;6953;48.810;9.204;2022-07-11T04:36:42;99356.50;;;18.92;74.84
13765;BME280;6953;48.810;9.204;2022-07-11T04:39:08;99349.13;;;18.96;74.61
13765;BME280;6953;48.810;9.204;2022-07-11T04:41:33;99258.34;;;18.44;74.60
13765;BME280;6953;48.810;9.204;2022-07-11T04:43:59;99354.38;;;19.08;74.42
13765;BME280;6953;48.810;9.204;2022-07-11T04:46:24;99281.53;;;18.77;74.46
13765;BME280;6953;48.810;9.204;2022-07-11T04:48:50;99336.88;;;19.17;74.07
13765;BME280;6953;48.810;9.204;2022-07-11T04:51:15;99332.78;;;19.24;73.93
13765;BME280;6953;48.810;9.204;2022-07-11T04:53:42;99341.50;;;19.37;73.82
13765;BME280;6953;48.810;9.204;2022-07-11T04:56:08;99355.66;;;19.48;73.45
13765;BME280;6953;48.810;9.204;2022-07-11T04:58:33;99341.16;;;19.52;73.07
13765;BME280;6953;48.810;9.204;2022-07-11T05:00:59;99346.97;;;19.57;72.91
13765;BME280;6953;48.810;9.204;2022-07-11T05:03:25;99192.91;;;18.76;72.27
13765;BME280;6953;48.810;9.204;2022-07-11T05:05:51;99358.34;;;19.70;72.37
13765;BME280;6953;48.810;9.204;2022-07-11T05:08:16;99302.81;;;19.55;71.99
13765;BME280;6953;48.810;9.204;2022-07-11T05:10:41;99341.91;;;19.87;71.48
13765;BME280;6953;48.810;9.204;2022-07-11T05:13:07;99353.16;;;20.01;71.17
13765;BME280;6953;48.810;9.204;2022-07-11T05:15:32;99224.28;;;19.38;70.84
13765;BME280;6953;48.810;9.204;2022-07-11T05:17:57;99286.69;;;19.78;70.24
13765;BME280;6953;48.810;9.204;2022-07-11T05:20:23;99340.41;;;20.27;69.89
13765;BME280;6953;48.810;9.204;2022-07-11T05:22:48;99357.31;;;20.48;69.22
13765;BME280;6953;48.810;9.204;2022-07-11T05:25:14;99099.34;;;19.04;68.84
13765;BME280;6953;48.810;9.204;2022-07-11T05:27:39;99365.75;;;20.64;68.88
13765;BME280;6953;48.810;9.204;2022-07-11T05:30:05;99364.13;;;20.72;68.36
13765;BME280;6953;48.810;9.204;2022-07-11T05:32:31;99368.50;;;20.73;68.44
13765;BME280;6953;48.810;9.204;2022-07-11T05:34:56;99254.16;;;20.17;68.18
13765;BME280;6953;48.810;9.204;2022-07-11T05:37:23;99288.41;;;20.64;67.20
13765;BME280;6953;48.810;9.204;2022-07-11T05:39:49;99314.91;;;20.97;66.78
13765;BME280;6953;48.810;9.204;2022-07-11T05:42:16;99360.28;;;21.37;66.67
13765;BME280;6953;48.810;9.204;2022-07-11T05:44:41;99339.19;;;21.34;65.61
13765;BME280;6953;48.810;9.204;2022-07-11T05:47:06;99366.56;;;21.77;64.87
13765;BME280;6953;48.810;9.204;2022-07-11T05:49:32;99371.94;;;21.87;65.00
13765;BME280;6953;48.810;9.204;2022-07-11T05:51:57;99370.13;;;21.87;64.72
13765;BME280;6953;48.810;9.204;2022-07-11T05:54:23;99283.16;;;21.44;64.40
13765;BME280;6953;48.810;9.204;2022-07-11T05:56:48;99362.22;;;22.15;64.11
13765;BME280;6953;48.810;9.204;2022-07-11T05:59:14;99208.91;;;21.68;62.55
13765;BME280;6953;48.810;9.204;2022-07-11T06:01:39;99325.84;;;22.43;62.13
13765;BME280;6953;48.810;9.204;2022-07-11T06:04:05;99376.72;;;22.71;62.28
13765;BME280;6953;48.810;9.204;2022-07-11T06:06:31;99378.41;;;22.82;62.13
13765;BME280;6953;48.810;9.204;2022-07-11T06:08:56;99373.75;;;22.93;61.51
13765;BME280;6953;48.810;9.204;2022-07-11T06:11:22;99376.16;;;22.96;61.33
13765;BME280;6953;48.810;9.204;2022-07-11T06:13:47;99368.84;;;23.08;60.63
13765;BME280;6953;48.810;9.204;2022-07-11T06:16:15;99352.22;;;23.23;59.60
13765;BME280;6953;48.810;9.204;2022-07-11T06:18:41;99377.50;;;23.57;58.94
13765;BME280;6953;48.810;9.204;2022-07-11T06:21:07;99381.56;;;23.80;58.14
13765;BME280;6953;48.810;9.204;2022-07-11T06:23:33;99296.75;;;23.42;57.15
13765;BME280;6953;48.810;9.204;2022-07-11T06:26:02;99314.88;;;23.58;57.18
13765;BME280;6953;48.810;9.204;2022-07-11T06:28:28;99305.53;;;23.71;56.58
13765;BME280;6953;48.810;9.204;2022-07-11T06:30:54;99368.72;;;24.10;56.79
13765;BME280;6953;48.810;9.204;2022-07-11T06:33:20;99344.94;;;23.98;57.11
13765;BME280;6953;48.810;9.204;2022-07-11T06:35:46;99387.69;;;24.26;57.59
13765;BME280;6953;48.810;9.204;2022-07-11T06:38:13;99360.88;;;24.26;57.03
13765;BME280;6953;48.810;9.204;2022-07-11T06:40:39;99336.50;;;24.20;56.44
13765;BME280;6953;48.810;9.204;2022-07-11T06:43:05;99355.22;;;24.29;56.27
13765;BME280;6953;48.810;9.204;2022-07-11T06:45:32;99392.25;;;24.43;55.88
13765;BME280;6953;48.810;9.204;2022-07-11T06:47:58;99375.69;;;24.30;56.17
13765;BME280;6953;48.810;9.204;2022-07-11T06:50:24;99352.66;;;24.27;55.80
13765;BME280;6953;48.810;9.204;2022-07-11T06:52:49;99285.00;;;24.33;54.32
13765;BME280;6953;48.810;9.204;2022-07-11T06:55:14;99302.75;;;24.79;52.58
13765;BME280;6953;48.810;9.204;2022-07-11T06:57:40;99377.69;;;25.42;51.90
13765;BME280;6953;48.810;9.204;2022-07-11T07:00:06;99366.84;;;25.51;51.93
13765;BME280;6953;48.810;9.204;2022-07-11T07:02:32;99391.19;;;25.75;51.32
13765;BME280;6953;48.810;9.204;2022-07-11T07:04:58;99316.75;;;25.50;51.05
13765;BME280;6953;48.810;9.204;2022-07-11T07:07:25;99320.97;;;25.78;49.88
13765;BME280;6953;48.810;9.204;2022-07-11T07:09:50;99371.09;;;26.54;49.28
13765;BME280;6953;48.810;9.204;2022-07-11T07:12:15;99340.84;;;26.76;47.77
13765;BME280;6953;48.810;9.204;2022-07-11T07:14:41;99342.50;;;26.69;47.67
13765;BME280;6953;48.810;9.204;2022-07-11T07:17:06;99356.47;;;26.72;47.84
13765;BME280;6953;48.810;9.204;2022-07-11T07:19:32;99236.06;;;26.33;46.72
13765;BME280;6953;48.810;9.204;2022-07-11T07:21:57;99368.00;;;27.38;46.17
13765;BME280;6953;48.810;9.204;2022-07-11T07:24:22;99374.03;;;27.80;45.06
13765;BME280;6953;48.810;9.204;2022-07-11T07:26:48;99372.50;;;28.40;43.59
13765;BME280;6953;48.810;9.204;2022-07-11T07:29:13;99254.53;;;27.71;42.79
13765;BME280;6953;48.810;9.204;2022-07-11T07:31:39;99378.78;;;28.24;43.44
13765;BME280;6953;48.810;9.204;2022-07-11T07:34:04;99370.44;;;29.02;41.41
13765;BME280;6953;48.810;9.204;2022-07-11T07:36:30;99370.13;;;29.79;39.46
13765;BME280;6953;48.810;9.204;2022-07-11T07:38:55;99367.28;;;31.30;36.81
13765;BME280;6953;48.810;9.204;2022-07-11T07:41:21;99336.78;;;33.88;30.26
13765;BME280;6953;48.810;9.204;2022-07-11T07:43:46;99327.41;;;33.32;30.69
13765;BME280;6953;48.810;9.204;2022-07-11T07:46:14;99368.31;;;32.38;32.97
13765;BME280;6953;48.810;9.204;2022-07-11T07:48:39;99353.50;;;31.52;33.98
13765;BME280;6953;48.810;9.204;2022-07-11T07:51:05;99329.09;;;31.31;34.29
13765;BME280;6953;48.810;9.204;2022-07-11T07:53:31;99338.06;;;31.32;34.50
13765;BME280;6953;48.810;9.204;2022-07-11T07:55:56;99365.53;;;31.43;34.49
13765;BME280;6953;48.810;9.204;2022-07-11T07:58:21;99280.63;;;31.01;33.96
13765;BME280;6953;48.810;9.204;2022-07-11T08:00:47;99249.97;;;30.23;34.95
13765;BME280;6953;48.810;9.204;2022-07-11T08:03:30;99272.03;;;30.06;35.67
13765;BME280;6953;48.810;9.204;2022-07-11T08:05:56;99326.97;;;30.50;35.56
13765;BME280;6953;48.810;9.204;2022-07-11T08:08:22;99335.44;;;30.96;34.96
13765;BME280;6953;48.810;9.204;2022-07-11T08:10:48;99354.50;;;32.06;32.71
13765;BME280;6953;48.810;9.204;2022-07-11T08:13:13;99300.38;;;33.30;29.73
13765;BME280;6953;48.810;9.204;2022-07-11T08:15:38;99114.44;;;33.36;27.76
13765;BME280;6953;48.810;9.204;2022-07-11T08:18:04;99266.25;;;35.71;24.77
13765;BME280;6953;48.810;9.204;2022-07-11T08:20:29;99356.44;;;37.78;23.18
13765;BME280;6953;48.810;9.204;2022-07-11T08:23:02;99265.25;;;37.94;22.21
13765;BME280;6953;48.810;9.204;2022-07-11T08:25:29;99335.88;;;39.17;21.52
13765;BME280;6953;48.810;9.204;2022-07-11T08:27:54;99384.50;;;40.10;20.31
13765;BME280;6953;48.810;9.204;2022-07-11T08:30:20;99384.56;;;40.31;19.76
13765;BME280;6953;48.810;9.204;2022-07-11T08:32:45;99377.38;;;40.30;19.65
13765;BME280;6953;48.810;9.204;2022-07-11T08:35:10;99304.53;;;40.16;19.76
13765;BME280;6953;48.810;9.204;2022-07-11T08:37:36;99378.75;;;41.40;18.53
13765;BME280;6953;48.810;9.204;2022-07-11T08:40:02;99314.16;;;39.97;19.04
13765;BME280;6953;48.810;9.204;2022-07-11T08:42:29;99158.50;;;36.85;21.91
13765;BME280;6953;48.810;9.204;2022-07-11T08:44:56;99341.38;;;36.47;23.95
13765;BME280;6953;48.810;9.204;2022-07-11T08:47:22;99347.88;;;36.46;23.91
13765;BME280;6953;48.810;9.204;2022-07-11T08:49:48;99352.47;;;37.51;22.59
13765;BME280;6953;48.810;9.204;2022-07-11T08:52:15;99283.16;;;38.48;21.58
13765;BME280;6953;48.810;9.204;2022-07-11T08:54:41;99360.13;;;40.18;19.38
13765;BME280;6953;48.810;9.204;2022-07-11T08:57:07;99358.56;;;41.08;18.63
13765;BME280;6953;48.810;9.204;2022-07-11T08:59:35;99352.25;;;41.34;18.67
13765;BME280;6953;48.810;9.204;2022-07-11T09:02:02;99305.50;;;41.49;17.71
13765;BME280;6953;48.810;9.204;2022-07-11T09:04:29;99361.84;;;41.94;17.82
13765;BME280;6953;48.810;9.204;2022-07-11T09:06:55;99369.06;;;42.88;16.43
13765;BME280;6953;48.810;9.204;2022-07-11T09:09:21;99359.75;;;43.33;16.67
13765;BME280;6953;48.810;9.204;2022-07-11T09:11:48;99329.88;;;43.16;16.14
13765;BME280;6953;48.810;9.204;2022-07-11T09:14:29;99358.31;;;42.96;16.29
13765;BME280;6953;48.810;9.204;2022-07-11T09:16:59;99193.44;;;41.74;16.73
13765;BME280;6953;48.810;9.204;2022-07-11T09:19:30;99310.75;;;42.28;16.93
13765;BME280;6953;48.810;9.204;2022-07-11T09:22:10;99336.28;;;43.21;16.47
13765;BME280;6953;48.810;9.204;2022-07-11T09:25:06;99330.72;;;43.31;15.69
13765;BME280;6953;48.810;9.204;2022-07-11T09:28:03;99329.94;;;43.50;15.77
13765;BME280;6953;48.810;9.204;2022-07-11T09:30:32;99209.28;;;41.94;16.03
13765;BME280;6953;48.810;9.204;2022-07-11T09:35:32;99366.47;;;43.72;14.77
13765;BME280;6953;48.810;9.204;2022-07-11T09:37:58;99326.25;;;44.34;14.73
13765;BME280;6953;48.810;9.204;2022-07-11T09:40:27;99321.50;;;44.98;14.67
13765;BME280;6953;48.810;9.204;2022-07-11T09:42:54;99388.38;;;45.78;13.93
13765;BME280;6953;48.810;9.204;2022-07-11T09:45:25;99388.00;;;46.93;12.80
13765;BME280;6953;48.810;9.204;2022-07-11T09:47:53;99312.16;;;46.88;13.00
13765;BME280;6953;48.810;9.204;2022-07-11T09:50:24;99386.22;;;46.56;12.99
13765;BME280;6953;48.810;9.204;2022-07-11T09:53:12;99376.72;;;44.95;13.91
13765;BME280;6953;48.810;9.204;2022-07-11T09:55:41;99378.25;;;45.59;13.82
13765;BME280;6953;48.810;9.204;2022-07-11T09:58:09;99336.06;;;44.65;14.04
13765;BME280;6953;48.810;9.204;2022-07-11T10:00:35;99336.13;;;42.81;15.61
13765;BME280;6953;48.810;9.204;2022-07-11T10:03:02;99351.84;;;40.35;17.16
13765;BME280;6953;48.810;9.204;2022-07-11T10:05:28;99239.16;;;37.23;19.58
13765;BME280;6953;48.810;9.204;2022-07-11T10:07:54;99327.66;;;35.44;22.19
13765;BME280;6953;48.810;9.204;2022-07-11T10:10:20;99333.88;;;33.50;24.91
13765;BME280;6953;48.810;9.204;2022-07-11T10:12:46;99245.81;;;32.40;26.09
13765;BME280;6953;48.810;9.204;2022-07-11T10:15:15;99334.91;;;33.23;26.10
13765;BME280;6953;48.810;9.204;2022-07-11T10:20:33;99338.72;;;35.49;23.46
13765;BME280;6953;48.810;9.204;2022-07-11T10:23:19;99292.78;;;39.17;18.85
13765;BME280;6953;48.810;9.204;2022-07-11T10:25:57;99271.88;;;39.16;18.87
13765;BME280;6953;48.810;9.204;2022-07-11T10:28:37;99342.00;;;38.40;20.11
13765;BME280;6953;48.810;9.204;2022-07-11T10:31:17;99265.34;;;36.49;21.87
13765;BME280;6953;48.810;9.204;2022-07-11T10:34:05;99286.88;;;36.28;22.11
13765;BME280;6953;48.810;9.204;2022-07-11T10:36:32;99340.66;;;35.91;21.91
13765;BME280;6953;48.810;9.204;2022-07-11T10:39:22;99267.59;;;35.38;23.01
13765;BME280;6953;48.810;9.204;2022-07-11T10:41:56;99267.25;;;36.31;21.47
13765;BME280;6953;48.810;9.204;2022-07-11T10:44:22;99342.19;;;36.95;21.86
13765;BME280;6953;48.810;9.204;2022-07-11T10:46:48;99251.63;;;36.02;22.35
13765;BME280;6953;48.810;9.204;2022-07-11T11:02:27;99330.34;;;37.64;21.00
13765;BME280;6953;48.810;9.204;2022-07-11T11:07:37;99332.06;;;34.84;23.50
13765;BME280;6953;48.810;9.204;2022-07-11T11:15:44;99320.66;;;33.80;26.15
13765;BME280;6953;48.810;9.204;2022-07-11T11:20:44;99254.16;;;34.07;26.04
13765;BME280;6953;48.810;9.204;2022-07-11T11:23:10;99338.47;;;34.96;25.06
13765;BME280;6953;48.810;9.204;2022-07-11T11:25:35;99311.47;;;35.19;23.37
13765;BME280;6953;48.810;9.204;2022-07-11T11:28:03;99324.84;;;35.75;23.74
13765;BME280;6953;48.810;9.204;2022-07-11T11:30:29;99234.59;;;36.00;22.96
13765;BME280;6953;48.810;9.204;2022-07-11T11:32:55;99331.63;;;38.19;20.74
13765;BME280;6953;48.810;9.204;2022-07-11T11:35:20;99336.41;;;40.12;18.59
13765;BME280;6953;48.810;9.204;2022-07-11T11:37:46;99338.31;;;41.77;17.50
13765;BME280;6953;48.810;9.204;2022-07-11T11:40:13;99320.22;;;43.98;14.85
13765;BME280;6953;48.810;9.204;2022-07-11T11:42:39;99350.59;;;45.82;13.89
13765;BME280;6953;48.810;9.204;2022-07-11T11:45:05;99352.03;;;43.75;15.28
13765;BME280;6953;48.810;9.204;2022-07-11T11:47:35;99341.00;;;39.90;17.70
13765;BME280;6953;48.810;9.204;2022-07-11T11:50:00;99210.22;;;36.63;21.14
13765;BME280;6953;48.810;9.204;2022-07-11T11:52:27;99301.38;;;37.57;21.33
13765;BME280;6953;48.810;9.204;2022-07-11T11:54:57;99320.41;;;40.09;19.04
13765;BME280;6953;48.810;9.204;2022-07-11T11:57:24;99316.63;;;39.61;19.33
13765;BME280;6953;48.810;9.204;2022-07-11T11:59:50;99256.88;;;39.57;18.79
13765;BME280;6953;48.810;9.204;2022-07-11T12:02:24;99310.00;;;38.46;19.80
13765;BME280;6953;48.810;9.204;2022-07-11T12:04:49;99230.44;;;36.62;21.71
13765;BME280;6953;48.810;9.204;2022-07-11T12:07:21;99298.41;;;37.06;21.22
13765;BME280;6953;48.810;9.204;2022-07-11T12:09:50;99264.06;;;37.33;20.80
13765;BME280;6953;48.810;9.204;2022-07-11T12:12:19;99307.72;;;37.92;20.91
13765;BME280;6953;48.810;9.204;2022-07-11T12:15:05;99256.56;;;37.74;20.64
13765;BME280;6953;48.810;9.204;2022-07-11T12:17:32;99284.00;;;36.99;21.29
13765;BME280;6953;48.810;9.204;2022-07-11T12:19:57;99310.66;;;36.92;21.81
13765;BME280;6953;48.810;9.204;2022-07-11T12:22:23;99216.00;;;36.08;22.25
13765;BME280;6953;48.810;9.204;2022-07-11T12:24:50;99258.41;;;36.46;22.74
13765;BME280;6953;48.810;9.204;2022-07-11T12:27:20;99237.84;;;38.45;20.62
13765;BME280;6953;48.810;9.204;2022-07-11T12:29:46;99226.16;;;41.19;17.28
13765;BME280;6953;48.810;9.204;2022-07-11T12:32:16;99318.84;;;41.62;16.61
13765;BME280;6953;48.810;9.204;2022-07-11T12:34:44;99294.31;;;41.29;17.19
13765;BME280;6953;48.810;9.204;2022-07-11T12:37:13;99270.47;;;40.39;18.51
13765;BME280;6953;48.810;9.204;2022-07-11T12:47:43;99238.97;;;36.54;22.30
13765;BME280;6953;48.810;9.204;2022-07-11T12:50:13;99281.22;;;36.40;22.75
13765;BME280;6953;48.810;9.204;2022-07-11T12:52:40;99269.03;;;36.25;22.84
13765;BME280;6953;48.810;9.204;2022-07-11T12:55:08;99227.34;;;37.00;22.50
13765;BME280;6953;48.810;9.204;2022-07-11T12:57:36;99211.44;;;37.43;22.08
13765;BME280;6953;48.810;9.204;2022-07-11T13:00:15;99274.16;;;38.24;21.22
13765;BME280;6953;48.810;9.204;2022-07-11T13:02:49;99229.81;;;38.16;20.87
13765;BME280;6953;48.810;9.204;2022-07-11T13:05:15;99219.50;;;38.23;20.55
13765;BME280;6953;48.810;9.204;2022-07-11T13:07:41;99245.59;;;37.29;21.29
13765;BME280;6953;48.810;9.204;2022-07-11T13:10:26;99165.75;;;35.91;23.18
13765;BME280;6953;48.810;9.204;2022-07-11T13:13:12;99265.28;;;35.84;24.07
13765;BME280;6953;48.810;9.204;2022-07-11T13:15:38;99268.06;;;34.80;25.15
13765;BME280;6953;48.810;9.204;2022-07-11T13:18:03;99235.03;;;34.19;25.94
13765;BME280;6953;48.810;9.204;2022-07-11T13:20:30;99180.88;;;33.86;25.60
13765;BME280;6953;48.810;9.204;2022-07-11T13:22:56;99199.13;;;34.91;24.97
13765;BME280;6953;48.810;9.204;2022-07-11T13:25:22;99270.97;;;36.00;25.02
13765;BME280;6953;48.810;9.204;2022-07-11T13:27:49;99164.78;;;35.32;24.35
13765;BME280;6953;48.810;9.204;2022-07-11T13:30:16;99278.56;;;35.62;24.78
13765;BME280;6953;48.810;9.204;2022-07-11T13:32:44;99176.47;;;34.66;24.92
13765;BME280;6953;48.810;9.204;2022-07-11T13:35:10;99110.47;;;34.26;25.14
13765;BME280;6953;48.810;9.204;2022-07-11T13:37:36;99247.59;;;34.95;25.05
13765;BME280;6953;48.810;9.204;2022-07-11T13:40:04;99221.59;;;34.55;25.39
13765;BME280;6953;48.810;9.204;2022-07-11T13:42:30;99264.19;;;34.56;26.19
13765;BME280;6953;48.810;9.204;2022-07-11T13:44:58;99185.13;;;33.75;26.17
13765;BME280;6953;48.810;9.204;2022-07-11T13:47:24;98987.41;;;32.02;27.09